sensor_id;sensor_type;location;lat;lon;timestamp;P1;durP1;ratioP1;P2;durP2;ratioP2
74347;SDS011;62778;50.406;10.008;2022-11-14T00:00:27;10.57;;;5.53;;
74347;SDS011;62778;50.406;10.008;2022-11-14T00:01:23;9.48;;;5.13;;
74347;SDS011;62778;50.406;10.008;2022-11-14T00:02:18;11.03;;;5.37;;
74347;SDS011;62778;50.406;10.008;2022-11-14T00:03:15;10.60;;;6.00;;
74347;SDS011;62778;50.406;10.008;2022-11-14T00:04:10;11.77;;;6.70;;
74347;SDS011;62778;50.406;10.008;2022-11-14T00:05:06;11.13;;;5.97;;
74347;SDS011;62778;50.406;10.008;2022-11-14T00:06:04;10.10;;;5.65;;
74347;SDS011;62778;50.406;10.008;2022-11-14T00:07:01;11.65;;;5.80;;
74347;SDS011;62778;50.406;10.008;2022-11-14T00:07:56;12.33;;;6.17;;
74347;SDS011;62778;50.406;10.008;2022-11-14T00:08:52;9.63;;;5.47;;
74347;SDS011;62778;50.406;10.008;2022-11-14T00:09:47;11.13;;;6.20;;
74347;SDS011;62778;50.406;10.008;2022-11-14T00:10:44;13.03;;;6.80;;
74347;SDS011;62778;50.406;10.008;2022-11-14T00:11:40;10.40;;;5.70;;
74347;SDS011;62778;50.406;10.008;2022-11-14T00:12:35;10.98;;;5.60;;
74347;SDS011;62778;50.406;10.008;2022-11-14T00:13:31;11.53;;;6.10;;
74347;SDS011;62778;50.406;10.008;2022-11-14T00:14:26;10.97;;;5.57;;
74347;SDS011;62778;50.406;10.008;2022-11-14T00:15:21;12.60;;;7.07;;
74347;SDS011;62778;50.406;10.008;2022-11-14T00:16:17;12.13;;;6.70;;
74347;SDS011;62778;50.406;10.008;2022-11-14T00:17:12;12.97;;;7.00;;
74347;SDS011;62778;50.406;10.008;2022-11-14T00:18:07;13.10;;;6.63;;
74347;SDS011;62778;50.406;10.008;2022-11-14T00:19:03;10.93;;;5.70;;
74347;SDS011;62778;50.406;10.008;2022-11-14T00:19:58;10.37;;;5.80;;
74347;SDS011;62778;50.406;10.008;2022-11-14T00:20:53;12.00;;;6.45;;
74347;SDS011;62778;50.406;10.008;2022-11-14T00:21:49;12.77;;;6.57;;
74347;SDS011;62778;50.406;10.008;2022-11-14T00:22:46;12.27;;;7.00;;
74347;SDS011;62778;50.406;10.008;2022-11-14T00:23:41;11.83;;;6.50;;
74347;SDS011;62778;50.406;10.008;2022-11-14T00:24:37;13.50;;;6.93;;
74347;SDS011;62778;50.406;10.008;2022-11-14T00:25:32;12.57;;;6.50;;
74347;SDS011;62778;50.406;10.008;2022-11-14T00:26:27;10.53;;;6.10;;
74347;SDS011;62778;50.406;10.008;2022-11-14T00:27:23;11.73;;;6.40;;
74347;SDS011;62778;50.406;10.008;2022-11-14T00:28:18;12.77;;;6.73;;
74347;SDS011;62778;50.406;10.008;2022-11-14T00:29:14;13.83;;;7.27;;
74347;SDS011;62778;50.406;10.008;2022-11-14T00:30:09;13.05;;;7.00;;
74347;SDS011;62778;50.406;10.008;2022-11-14T00:31:05;12.83;;;6.60;;
74347;SDS011;62778;50.406;10.008;2022-11-14T00:32:00;10.77;;;6.18;;
74347;SDS011;62778;50.406;10.008;2022-11-14T00:32:56;10.83;;;6.63;;
74347;SDS011;62778;50.406;10.008;2022-11-14T00:33:51;11.87;;;6.63;;
74347;SDS011;62778;50.406;10.008;2022-11-14T00:34:47;11.80;;;6.80;;
74347;SDS011;62778;50.406;10.008;2022-11-14T00:35:48;11.75;;;6.82;;
74347;SDS011;62778;50.406;10.008;2022-11-14T00:36:47;12.82;;;7.15;;
74347;SDS011;62778;50.406;10.008;2022-11-14T00:37:43;11.63;;;6.30;;
74347;SDS011;62778;50.406;10.008;2022-11-14T00:38:38;11.43;;;6.10;;
74347;SDS011;62778;50.406;10.008;2022-11-14T00:39:33;11.32;;;5.95;;
74347;SDS011;62778;50.406;10.008;2022-11-14T00:40:29;11.60;;;6.13;;
74347;SDS011;62778;50.406;10.008;2022-11-14T00:41:24;10.30;;;5.87;;
74347;SDS011;62778;50.406;10.008;2022-11-14T00:42:20;10.02;;;5.63;;
74347;SDS011;62778;50.406;10.008;2022-11-14T00:43:15;10.37;;;5.40;;
74347;SDS011;62778;50.406;10.008;2022-11-14T00:44:10;9.80;;;5.50;;
74347;SDS011;62778;50.406;10.008;2022-11-14T00:45:06;10.83;;;6.20;;
74347;SDS011;62778;50.406;10.008;2022-11-14T00:46:01;11.50;;;5.95;;
74347;SDS011;62778;50.406;10.008;2022-11-14T00:46:56;11.57;;;6.43;;
74347;SDS011;62778;50.406;10.008;2022-11-14T00:47:52;10.50;;;5.97;;
74347;SDS011;62778;50.406;10.008;2022-11-14T00:48:47;11.70;;;6.03;;
74347;SDS011;62778;50.406;10.008;2022-11-14T00:49:43;12.13;;;6.50;;
74347;SDS011;62778;50.406;10.008;2022-11-14T00:50:38;14.63;;;7.20;;
74347;SDS011;62778;50.406;10.008;2022-11-14T00:51:34;13.18;;;7.30;;
74347;SDS011;62778;50.406;10.008;2022-11-14T00:52:29;12.33;;;7.07;;
74347;SDS011;62778;50.406;10.008;2022-11-14T00:53:24;13.07;;;7.47;;
74347;SDS011;62778;50.406;10.008;2022-11-14T00:54:20;14.57;;;7.90;;
74347;SDS011;62778;50.406;10.008;2022-11-14T00:55:15;14.00;;;7.88;;
74347;SDS011;62778;50.406;10.008;2022-11-14T00:56:11;13.37;;;7.90;;
74347;SDS011;62778;50.406;10.008;2022-11-14T00:57:06;14.23;;;7.00;;
74347;SDS011;62778;50.406;10.008;2022-11-14T00:58:01;13.37;;;6.53;;
74347;SDS011;62778;50.406;10.008;2022-11-14T00:58:57;13.38;;;6.50;;
74347;SDS011;62778;50.406;10.008;2022-11-14T00:59:52;11.63;;;6.50;;
74347;SDS011;62778;50.406;10.008;2022-11-14T01:00:50;10.93;;;5.70;;
74347;SDS011;62778;50.406;10.008;2022-11-14T01:01:46;13.60;;;6.25;;
74347;SDS011;62778;50.406;10.008;2022-11-14T01:02:41;12.77;;;7.30;;
74347;SDS011;62778;50.406;10.008;2022-11-14T01:03:36;12.60;;;7.67;;
74347;SDS011;62778;50.406;10.008;2022-11-14T01:04:31;14.03;;;7.33;;
74347;SDS011;62778;50.406;10.008;2022-11-14T01:05:27;12.13;;;6.75;;
74347;SDS011;62778;50.406;10.008;2022-11-14T01:06:23;10.10;;;6.53;;
74347;SDS011;62778;50.406;10.008;2022-11-14T01:07:18;13.90;;;7.17;;
74347;SDS011;62778;50.406;10.008;2022-11-14T01:08:15;13.15;;;6.88;;
74347;SDS011;62778;50.406;10.008;2022-11-14T01:09:11;12.80;;;6.38;;
74347;SDS011;62778;50.406;10.008;2022-11-14T01:10:06;9.97;;;5.57;;
74347;SDS011;62778;50.406;10.008;2022-11-14T01:11:07;9.77;;;5.35;;
74347;SDS011;62778;50.406;10.008;2022-11-14T01:12:04;10.82;;;5.70;;
74347;SDS011;62778;50.406;10.008;2022-11-14T01:12:59;11.97;;;6.40;;
74347;SDS011;62778;50.406;10.008;2022-11-14T01:13:54;11.70;;;6.20;;
74347;SDS011;62778;50.406;10.008;2022-11-14T01:14:50;12.60;;;6.70;;
74347;SDS011;62778;50.406;10.008;2022-11-14T01:15:46;12.00;;;6.10;;
74347;SDS011;62778;50.406;10.008;2022-11-14T01:16:42;11.50;;;6.28;;
74347;SDS011;62778;50.406;10.008;2022-11-14T01:17:37;9.67;;;5.60;;
74347;SDS011;62778;50.406;10.008;2022-11-14T01:18:32;11.52;;;5.95;;
74347;SDS011;62778;50.406;10.008;2022-11-14T01:19:28;10.87;;;6.03;;
74347;SDS011;62778;50.406;10.008;2022-11-14T01:20:23;10.93;;;6.50;;
74347;SDS011;62778;50.406;10.008;2022-11-14T01:21:18;10.27;;;5.77;;
74347;SDS011;62778;50.406;10.008;2022-11-14T01:22:14;11.73;;;6.20;;
74347;SDS011;62778;50.406;10.008;2022-11-14T01:23:09;11.57;;;5.95;;
74347;SDS011;62778;50.406;10.008;2022-11-14T01:24:06;12.82;;;6.63;;
74347;SDS011;62778;50.406;10.008;2022-11-14T01:25:01;12.07;;;6.60;;
74347;SDS011;62778;50.406;10.008;2022-11-14T01:26:00;12.60;;;6.67;;
74347;SDS011;62778;50.406;10.008;2022-11-14T01:26:57;11.35;;;6.35;;
74347;SDS011;62778;50.406;10.008;2022-11-14T01:27:52;10.43;;;5.57;;
74347;SDS011;62778;50.406;10.008;2022-11-14T01:28:47;10.73;;;5.33;;
74347;SDS011;62778;50.406;10.008;2022-11-14T01:29:43;11.25;;;6.10;;
74347;SDS011;62778;50.406;10.008;2022-11-14T01:30:38;11.43;;;5.87;;
74347;SDS011;62778;50.406;10.008;2022-11-14T01:31:34;11.87;;;6.40;;
74347;SDS011;62778;50.406;10.008;2022-11-14T01:32:29;10.73;;;5.60;;
74347;SDS011;62778;50.406;10.008;2022-11-14T01:33:24;9.97;;;5.73;;
74347;SDS011;62778;50.406;10.008;2022-11-14T01:34:20;10.87;;;5.57;;
74347;SDS011;62778;50.406;10.008;2022-11-14T01:35:15;10.70;;;6.43;;
74347;SDS011;62778;50.406;10.008;2022-11-14T01:36:11;12.60;;;7.07;;
74347;SDS011;62778;50.406;10.008;2022-11-14T01:37:06;12.33;;;6.70;;
74347;SDS011;62778;50.406;10.008;2022-11-14T01:38:02;12.33;;;6.30;;
74347;SDS011;62778;50.406;10.008;2022-11-14T01:38:58;11.63;;;6.45;;
74347;SDS011;62778;50.406;10.008;2022-11-14T01:39:53;11.23;;;6.20;;
74347;SDS011;62778;50.406;10.008;2022-11-14T01:40:48;12.27;;;7.30;;
74347;SDS011;62778;50.406;10.008;2022-11-14T01:41:43;12.70;;;7.10;;
74347;SDS011;62778;50.406;10.008;2022-11-14T01:42:39;12.27;;;6.90;;
74347;SDS011;62778;50.406;10.008;2022-11-14T01:43:35;13.13;;;7.27;;
74347;SDS011;62778;50.406;10.008;2022-11-14T01:44:46;12.07;;;6.50;;
74347;SDS011;62778;50.406;10.008;2022-11-14T01:46:44;13.23;;;7.20;;
74347;SDS011;62778;50.406;10.008;2022-11-14T01:47:41;12.85;;;7.55;;
74347;SDS011;62778;50.406;10.008;2022-11-14T01:50:10;12.90;;;6.13;;
74347;SDS011;62778;50.406;10.008;2022-11-14T01:52:11;13.45;;;7.53;;
74347;SDS011;62778;50.406;10.008;2022-11-14T01:53:30;13.25;;;7.60;;
74347;SDS011;62778;50.406;10.008;2022-11-14T01:54:29;13.25;;;7.50;;
74347;SDS011;62778;50.406;10.008;2022-11-14T01:55:27;13.07;;;7.72;;
74347;SDS011;62778;50.406;10.008;2022-11-14T01:57:04;14.07;;;7.77;;
74347;SDS011;62778;50.406;10.008;2022-11-14T01:57:43;12.48;;;7.28;;
74347;SDS011;62778;50.406;10.008;2022-11-14T01:58:41;13.85;;;7.65;;
74347;SDS011;62778;50.406;10.008;2022-11-14T01:59:43;13.88;;;7.00;;
74347;SDS011;62778;50.406;10.008;2022-11-14T02:00:39;13.80;;;7.63;;
74347;SDS011;62778;50.406;10.008;2022-11-14T02:01:36;15.30;;;8.27;;
74347;SDS011;62778;50.406;10.008;2022-11-14T02:02:34;13.82;;;7.63;;
74347;SDS011;62778;50.406;10.008;2022-11-14T02:03:30;14.30;;;7.90;;
74347;SDS011;62778;50.406;10.008;2022-11-14T02:04:27;14.65;;;8.40;;
74347;SDS011;62778;50.406;10.008;2022-11-14T02:05:24;15.55;;;7.97;;
74347;SDS011;62778;50.406;10.008;2022-11-14T02:06:20;14.13;;;7.97;;
74347;SDS011;62778;50.406;10.008;2022-11-14T02:07:16;15.20;;;7.90;;
74347;SDS011;62778;50.406;10.008;2022-11-14T02:08:13;13.80;;;7.57;;
74347;SDS011;62778;50.406;10.008;2022-11-14T02:09:08;13.48;;;7.57;;
74347;SDS011;62778;50.406;10.008;2022-11-14T02:10:05;15.03;;;7.27;;
74347;SDS011;62778;50.406;10.008;2022-11-14T02:11:10;12.63;;;6.32;;
74347;SDS011;62778;50.406;10.008;2022-11-14T02:12:06;13.23;;;6.90;;
74347;SDS011;62778;50.406;10.008;2022-11-14T02:13:03;13.50;;;7.07;;
74347;SDS011;62778;50.406;10.008;2022-11-14T02:13:58;11.03;;;5.73;;
74347;SDS011;62778;50.406;10.008;2022-11-14T02:14:54;12.32;;;6.82;;
74347;SDS011;62778;50.406;10.008;2022-11-14T02:15:50;11.98;;;6.85;;
74347;SDS011;62778;50.406;10.008;2022-11-14T02:16:46;11.20;;;5.83;;
74347;SDS011;62778;50.406;10.008;2022-11-14T02:17:41;13.47;;;6.80;;
74347;SDS011;62778;50.406;10.008;2022-11-14T02:18:37;13.25;;;6.75;;
74347;SDS011;62778;50.406;10.008;2022-11-14T02:20:37;13.90;;;7.30;;
74347;SDS011;62778;50.406;10.008;2022-11-14T02:21:37;11.45;;;6.70;;
74347;SDS011;62778;50.406;10.008;2022-11-14T02:22:32;14.20;;;7.37;;
74347;SDS011;62778;50.406;10.008;2022-11-14T02:23:28;14.97;;;7.47;;
74347;SDS011;62778;50.406;10.008;2022-11-14T02:24:25;13.10;;;7.47;;
74347;SDS011;62778;50.406;10.008;2022-11-14T02:25:20;13.63;;;7.93;;
74347;SDS011;62778;50.406;10.008;2022-11-14T02:26:18;13.00;;;7.30;;
74347;SDS011;62778;50.406;10.008;2022-11-14T02:27:14;12.55;;;7.13;;
74347;SDS011;62778;50.406;10.008;2022-11-14T02:28:10;14.83;;;7.13;;
74347;SDS011;62778;50.406;10.008;2022-11-14T02:29:06;11.67;;;6.57;;
74347;SDS011;62778;50.406;10.008;2022-11-14T02:30:03;12.43;;;6.87;;
74347;SDS011;62778;50.406;10.008;2022-11-14T02:30:59;12.15;;;6.50;;
74347;SDS011;62778;50.406;10.008;2022-11-14T02:33:46;10.97;;;5.80;;
74347;SDS011;62778;50.406;10.008;2022-11-14T02:34:41;13.18;;;6.82;;
74347;SDS011;62778;50.406;10.008;2022-11-14T02:35:37;11.57;;;5.93;;
74347;SDS011;62778;50.406;10.008;2022-11-14T02:36:32;11.37;;;6.00;;
74347;SDS011;62778;50.406;10.008;2022-11-14T02:37:27;10.80;;;6.23;;
74347;SDS011;62778;50.406;10.008;2022-11-14T02:38:23;12.00;;;6.70;;
74347;SDS011;62778;50.406;10.008;2022-11-14T02:39:18;12.18;;;6.38;;
74347;SDS011;62778;50.406;10.008;2022-11-14T02:40:13;12.53;;;7.43;;
74347;SDS011;62778;50.406;10.008;2022-11-14T02:41:09;14.43;;;7.90;;
74347;SDS011;62778;50.406;10.008;2022-11-14T02:42:04;13.60;;;7.83;;
74347;SDS011;62778;50.406;10.008;2022-11-14T02:42:59;11.95;;;6.90;;
74347;SDS011;62778;50.406;10.008;2022-11-14T02:43:55;12.50;;;6.70;;
74347;SDS011;62778;50.406;10.008;2022-11-14T02:44:50;13.87;;;7.80;;
74347;SDS011;62778;50.406;10.008;2022-11-14T02:45:45;16.10;;;7.97;;
74347;SDS011;62778;50.406;10.008;2022-11-14T02:46:41;14.65;;;8.32;;
74347;SDS011;62778;50.406;10.008;2022-11-14T02:47:36;13.47;;;7.50;;
74347;SDS011;62778;50.406;10.008;2022-11-14T02:48:32;14.30;;;7.70;;
74347;SDS011;62778;50.406;10.008;2022-11-14T02:49:27;13.37;;;7.87;;
74347;SDS011;62778;50.406;10.008;2022-11-14T02:50:22;14.52;;;7.43;;
74347;SDS011;62778;50.406;10.008;2022-11-14T02:51:17;13.67;;;7.70;;
74347;SDS011;62778;50.406;10.008;2022-11-14T02:52:13;14.93;;;8.10;;
74347;SDS011;62778;50.406;10.008;2022-11-14T02:53:08;14.10;;;7.80;;
74347;SDS011;62778;50.406;10.008;2022-11-14T02:54:03;13.83;;;8.20;;
74347;SDS011;62778;50.406;10.008;2022-11-14T02:54:59;14.95;;;7.80;;
74347;SDS011;62778;50.406;10.008;2022-11-14T02:55:54;15.60;;;8.37;;
74347;SDS011;62778;50.406;10.008;2022-11-14T02:56:49;15.37;;;8.47;;
74347;SDS011;62778;50.406;10.008;2022-11-14T02:57:45;15.30;;;8.33;;
74347;SDS011;62778;50.406;10.008;2022-11-14T02:58:40;14.80;;;8.37;;
74347;SDS011;62778;50.406;10.008;2022-11-14T02:59:35;15.77;;;8.93;;
74347;SDS011;62778;50.406;10.008;2022-11-14T03:00:31;13.53;;;7.70;;
74347;SDS011;62778;50.406;10.008;2022-11-14T03:01:26;15.27;;;8.37;;
74347;SDS011;62778;50.406;10.008;2022-11-14T03:02:21;12.07;;;6.87;;
74347;SDS011;62778;50.406;10.008;2022-11-14T03:03:16;13.60;;;7.63;;
74347;SDS011;62778;50.406;10.008;2022-11-14T03:04:12;13.13;;;7.57;;
74347;SDS011;62778;50.406;10.008;2022-11-14T03:05:07;12.47;;;7.17;;
74347;SDS011;62778;50.406;10.008;2022-11-14T03:06:03;12.67;;;7.30;;
74347;SDS011;62778;50.406;10.008;2022-11-14T03:06:59;12.55;;;6.80;;
74347;SDS011;62778;50.406;10.008;2022-11-14T03:07:54;12.93;;;7.40;;
74347;SDS011;62778;50.406;10.008;2022-11-14T03:08:50;13.05;;;6.70;;
74347;SDS011;62778;50.406;10.008;2022-11-14T03:09:45;14.50;;;7.87;;
74347;SDS011;62778;50.406;10.008;2022-11-14T03:10:41;13.80;;;8.13;;
74347;SDS011;62778;50.406;10.008;2022-11-14T03:11:37;15.33;;;7.87;;
74347;SDS011;62778;50.406;10.008;2022-11-14T03:12:32;14.52;;;7.82;;
74347;SDS011;62778;50.406;10.008;2022-11-14T03:13:28;15.27;;;8.40;;
74347;SDS011;62778;50.406;10.008;2022-11-14T03:14:24;11.20;;;6.53;;
74347;SDS011;62778;50.406;10.008;2022-11-14T03:15:19;13.33;;;7.50;;
74347;SDS011;62778;50.406;10.008;2022-11-14T03:16:14;14.70;;;8.00;;
74347;SDS011;62778;50.406;10.008;2022-11-14T03:17:10;14.03;;;7.60;;
74347;SDS011;62778;50.406;10.008;2022-11-14T03:18:05;13.52;;;7.70;;
74347;SDS011;62778;50.406;10.008;2022-11-14T03:19:01;14.40;;;7.83;;
74347;SDS011;62778;50.406;10.008;2022-11-14T03:19:56;14.27;;;7.90;;
74347;SDS011;62778;50.406;10.008;2022-11-14T03:20:52;13.82;;;7.25;;
74347;SDS011;62778;50.406;10.008;2022-11-14T03:21:47;11.50;;;6.40;;
74347;SDS011;62778;50.406;10.008;2022-11-14T03:22:42;14.30;;;8.07;;
74347;SDS011;62778;50.406;10.008;2022-11-14T03:23:37;13.00;;;7.30;;
74347;SDS011;62778;50.406;10.008;2022-11-14T03:24:33;13.38;;;7.07;;
74347;SDS011;62778;50.406;10.008;2022-11-14T03:25:28;14.60;;;7.80;;
74347;SDS011;62778;50.406;10.008;2022-11-14T03:26:23;14.30;;;7.57;;
74347;SDS011;62778;50.406;10.008;2022-11-14T03:27:19;14.23;;;7.57;;
74347;SDS011;62778;50.406;10.008;2022-11-14T03:28:14;15.55;;;8.30;;
74347;SDS011;62778;50.406;10.008;2022-11-14T03:29:10;14.13;;;6.90;;
74347;SDS011;62778;50.406;10.008;2022-11-14T03:30:05;13.33;;;6.83;;
74347;SDS011;62778;50.406;10.008;2022-11-14T03:31:01;13.25;;;6.70;;
74347;SDS011;62778;50.406;10.008;2022-11-14T03:31:57;12.27;;;6.53;;
74347;SDS011;62778;50.406;10.008;2022-11-14T03:32:52;11.53;;;6.23;;
74347;SDS011;62778;50.406;10.008;2022-11-14T03:33:47;12.00;;;6.50;;
74347;SDS011;62778;50.406;10.008;2022-11-14T03:34:43;12.80;;;7.37;;
74347;SDS011;62778;50.406;10.008;2022-11-14T03:35:40;12.00;;;6.87;;
74347;SDS011;62778;50.406;10.008;2022-11-14T03:36:37;12.32;;;6.70;;
74347;SDS011;62778;50.406;10.008;2022-11-14T03:37:32;13.85;;;7.70;;
74347;SDS011;62778;50.406;10.008;2022-11-14T03:38:28;16.03;;;7.47;;
74347;SDS011;62778;50.406;10.008;2022-11-14T03:39:23;13.47;;;7.20;;
74347;SDS011;62778;50.406;10.008;2022-11-14T03:40:18;14.73;;;8.10;;
74347;SDS011;62778;50.406;10.008;2022-11-14T03:41:14;14.43;;;7.87;;
74347;SDS011;62778;50.406;10.008;2022-11-14T03:42:09;14.67;;;7.97;;
74347;SDS011;62778;50.406;10.008;2022-11-14T03:43:04;16.37;;;8.80;;
74347;SDS011;62778;50.406;10.008;2022-11-14T03:44:00;17.20;;;8.87;;
74347;SDS011;62778;50.406;10.008;2022-11-14T03:44:55;17.65;;;9.55;;
74347;SDS011;62778;50.406;10.008;2022-11-14T03:45:50;16.63;;;9.00;;
74347;SDS011;62778;50.406;10.008;2022-11-14T03:46:45;13.57;;;7.30;;
74347;SDS011;62778;50.406;10.008;2022-11-14T03:47:41;13.30;;;7.20;;
74347;SDS011;62778;50.406;10.008;2022-11-14T03:48:36;14.03;;;7.60;;
74347;SDS011;62778;50.406;10.008;2022-11-14T03:49:31;12.70;;;6.82;;
74347;SDS011;62778;50.406;10.008;2022-11-14T03:50:27;16.00;;;8.10;;
74347;SDS011;62778;50.406;10.008;2022-11-14T03:51:22;15.20;;;7.60;;
74347;SDS011;62778;50.406;10.008;2022-11-14T03:52:17;12.53;;;7.00;;
74347;SDS011;62778;50.406;10.008;2022-11-14T03:53:13;13.83;;;7.23;;
74347;SDS011;62778;50.406;10.008;2022-11-14T03:54:08;12.07;;;7.10;;
74347;SDS011;62778;50.406;10.008;2022-11-14T03:55:04;14.17;;;7.73;;
74347;SDS011;62778;50.406;10.008;2022-11-14T03:55:59;12.90;;;7.40;;
74347;SDS011;62778;50.406;10.008;2022-11-14T03:56:54;15.57;;;8.20;;
74347;SDS011;62778;50.406;10.008;2022-11-14T03:57:50;12.83;;;7.57;;
74347;SDS011;62778;50.406;10.008;2022-11-14T03:58:45;14.93;;;7.93;;
74347;SDS011;62778;50.406;10.008;2022-11-14T03:59:40;14.17;;;8.27;;
74347;SDS011;62778;50.406;10.008;2022-11-14T04:00:36;16.48;;;8.98;;
74347;SDS011;62778;50.406;10.008;2022-11-14T04:01:31;15.93;;;9.43;;
74347;SDS011;62778;50.406;10.008;2022-11-14T04:02:26;16.70;;;9.03;;
74347;SDS011;62778;50.406;10.008;2022-11-14T04:03:22;18.67;;;10.07;;
74347;SDS011;62778;50.406;10.008;2022-11-14T04:04:18;19.50;;;10.00;;
74347;SDS011;62778;50.406;10.008;2022-11-14T04:05:13;17.52;;;9.70;;
74347;SDS011;62778;50.406;10.008;2022-11-14T04:06:09;16.57;;;9.20;;
74347;SDS011;62778;50.406;10.008;2022-11-14T04:07:04;15.17;;;8.33;;
74347;SDS011;62778;50.406;10.008;2022-11-14T04:08:03;16.48;;;8.60;;
74347;SDS011;62778;50.406;10.008;2022-11-14T04:08:59;17.95;;;9.05;;
74347;SDS011;62778;50.406;10.008;2022-11-14T04:09:55;15.85;;;8.40;;
74347;SDS011;62778;50.406;10.008;2022-11-14T04:10:50;14.60;;;7.93;;
74347;SDS011;62778;50.406;10.008;2022-11-14T04:11:45;15.17;;;8.43;;
74347;SDS011;62778;50.406;10.008;2022-11-14T04:12:41;16.13;;;8.00;;
74347;SDS011;62778;50.406;10.008;2022-11-14T04:13:44;13.63;;;7.68;;
74347;SDS011;62778;50.406;10.008;2022-11-14T04:14:39;14.03;;;8.10;;
74347;SDS011;62778;50.406;10.008;2022-11-14T04:15:35;13.10;;;7.68;;
74347;SDS011;62778;50.406;10.008;2022-11-14T04:16:30;14.13;;;8.07;;
74347;SDS011;62778;50.406;10.008;2022-11-14T04:17:25;14.73;;;7.80;;
74347;SDS011;62778;50.406;10.008;2022-11-14T04:18:20;14.93;;;7.97;;
74347;SDS011;62778;50.406;10.008;2022-11-14T04:19:16;13.80;;;7.83;;
74347;SDS011;62778;50.406;10.008;2022-11-14T04:20:12;12.70;;;6.93;;
74347;SDS011;62778;50.406;10.008;2022-11-14T04:21:08;13.70;;;7.57;;
74347;SDS011;62778;50.406;10.008;2022-11-14T04:22:03;13.38;;;7.22;;
74347;SDS011;62778;50.406;10.008;2022-11-14T04:22:58;15.23;;;8.60;;
74347;SDS011;62778;50.406;10.008;2022-11-14T04:23:54;12.90;;;7.07;;
74347;SDS011;62778;50.406;10.008;2022-11-14T04:24:49;13.57;;;7.57;;
74347;SDS011;62778;50.406;10.008;2022-11-14T04:25:44;14.40;;;7.70;;
74347;SDS011;62778;50.406;10.008;2022-11-14T04:26:40;12.45;;;6.90;;
74347;SDS011;62778;50.406;10.008;2022-11-14T04:27:35;14.03;;;8.30;;
74347;SDS011;62778;50.406;10.008;2022-11-14T04:28:31;14.10;;;8.05;;
74347;SDS011;62778;50.406;10.008;2022-11-14T04:29:26;15.70;;;8.83;;
74347;SDS011;62778;50.406;10.008;2022-11-14T04:30:21;18.77;;;10.23;;
74347;SDS011;62778;50.406;10.008;2022-11-14T04:31:17;18.43;;;9.30;;
74347;SDS011;62778;50.406;10.008;2022-11-14T04:32:12;15.60;;;8.93;;
74347;SDS011;62778;50.406;10.008;2022-11-14T04:33:07;15.87;;;8.53;;
74347;SDS011;62778;50.406;10.008;2022-11-14T04:34:03;17.50;;;9.27;;
74347;SDS011;62778;50.406;10.008;2022-11-14T04:34:58;18.63;;;10.00;;
74347;SDS011;62778;50.406;10.008;2022-11-14T04:35:53;16.70;;;9.47;;
74347;SDS011;62778;50.406;10.008;2022-11-14T04:36:49;15.98;;;8.60;;
74347;SDS011;62778;50.406;10.008;2022-11-14T04:37:45;15.70;;;9.02;;
74347;SDS011;62778;50.406;10.008;2022-11-14T04:38:40;17.33;;;8.80;;
74347;SDS011;62778;50.406;10.008;2022-11-14T04:39:35;19.77;;;10.73;;
74347;SDS011;62778;50.406;10.008;2022-11-14T04:40:31;18.45;;;10.30;;
74347;SDS011;62778;50.406;10.008;2022-11-14T04:41:26;18.67;;;10.40;;
74347;SDS011;62778;50.406;10.008;2022-11-14T04:42:22;18.50;;;9.90;;
74347;SDS011;62778;50.406;10.008;2022-11-14T04:43:18;16.97;;;9.60;;
74347;SDS011;62778;50.406;10.008;2022-11-14T04:44:13;17.48;;;10.32;;
74347;SDS011;62778;50.406;10.008;2022-11-14T04:45:09;15.77;;;8.70;;
74347;SDS011;62778;50.406;10.008;2022-11-14T04:46:05;19.05;;;9.60;;
74347;SDS011;62778;50.406;10.008;2022-11-14T04:47:00;17.77;;;9.47;;
74347;SDS011;62778;50.406;10.008;2022-11-14T04:47:55;19.23;;;9.83;;
74347;SDS011;62778;50.406;10.008;2022-11-14T04:48:51;20.08;;;11.43;;
74347;SDS011;62778;50.406;10.008;2022-11-14T04:49:46;20.07;;;11.27;;
74347;SDS011;62778;50.406;10.008;2022-11-14T04:50:41;21.37;;;11.37;;
74347;SDS011;62778;50.406;10.008;2022-11-14T04:51:36;19.47;;;11.10;;
74347;SDS011;62778;50.406;10.008;2022-11-14T04:52:32;19.37;;;10.77;;
74347;SDS011;62778;50.406;10.008;2022-11-14T04:53:27;20.83;;;10.65;;
74347;SDS011;62778;50.406;10.008;2022-11-14T04:54:22;20.67;;;10.90;;
74347;SDS011;62778;50.406;10.008;2022-11-14T04:55:18;17.13;;;9.40;;
74347;SDS011;62778;50.406;10.008;2022-11-14T04:56:13;17.50;;;10.13;;
74347;SDS011;62778;50.406;10.008;2022-11-14T04:57:08;16.33;;;9.13;;
74347;SDS011;62778;50.406;10.008;2022-11-14T04:58:04;18.70;;;10.07;;
74347;SDS011;62778;50.406;10.008;2022-11-14T04:58:59;21.03;;;11.43;;
74347;SDS011;62778;50.406;10.008;2022-11-14T04:59:54;20.17;;;10.43;;
74347;SDS011;62778;50.406;10.008;2022-11-14T05:00:50;18.73;;;10.60;;
74347;SDS011;62778;50.406;10.008;2022-11-14T05:01:45;18.17;;;9.90;;
74347;SDS011;62778;50.406;10.008;2022-11-14T05:02:40;15.48;;;8.68;;
74347;SDS011;62778;50.406;10.008;2022-11-14T05:03:36;15.13;;;8.60;;
74347;SDS011;62778;50.406;10.008;2022-11-14T05:04:31;15.90;;;9.00;;
74347;SDS011;62778;50.406;10.008;2022-11-14T05:05:26;15.87;;;8.33;;
74347;SDS011;62778;50.406;10.008;2022-11-14T05:06:21;16.53;;;9.70;;
74347;SDS011;62778;50.406;10.008;2022-11-14T05:07:17;16.77;;;8.67;;
74347;SDS011;62778;50.406;10.008;2022-11-14T05:08:12;18.27;;;9.63;;
74347;SDS011;62778;50.406;10.008;2022-11-14T05:09:07;17.53;;;9.30;;
74347;SDS011;62778;50.406;10.008;2022-11-14T05:10:03;15.73;;;8.90;;
74347;SDS011;62778;50.406;10.008;2022-11-14T05:10:59;17.92;;;9.48;;
74347;SDS011;62778;50.406;10.008;2022-11-14T05:11:54;18.75;;;9.77;;
74347;SDS011;62778;50.406;10.008;2022-11-14T05:12:53;19.37;;;10.93;;
74347;SDS011;62778;50.406;10.008;2022-11-14T05:13:48;18.35;;;10.10;;
74347;SDS011;62778;50.406;10.008;2022-11-14T05:14:44;18.00;;;9.17;;
74347;SDS011;62778;50.406;10.008;2022-11-14T05:15:39;15.77;;;8.80;;
74347;SDS011;62778;50.406;10.008;2022-11-14T05:16:34;16.73;;;8.70;;
74347;SDS011;62778;50.406;10.008;2022-11-14T05:17:30;21.15;;;11.02;;
74347;SDS011;62778;50.406;10.008;2022-11-14T05:18:25;16.90;;;8.90;;
74347;SDS011;62778;50.406;10.008;2022-11-14T05:19:20;16.93;;;9.63;;
74347;SDS011;62778;50.406;10.008;2022-11-14T05:20:16;17.83;;;9.77;;
74347;SDS011;62778;50.406;10.008;2022-11-14T05:21:12;16.05;;;8.52;;
74347;SDS011;62778;50.406;10.008;2022-11-14T05:22:08;16.65;;;9.32;;
74347;SDS011;62778;50.406;10.008;2022-11-14T05:23:04;17.07;;;9.43;;
74347;SDS011;62778;50.406;10.008;2022-11-14T05:23:59;18.77;;;10.10;;
74347;SDS011;62778;50.406;10.008;2022-11-14T05:24:54;19.20;;;10.73;;
74347;SDS011;62778;50.406;10.008;2022-11-14T05:26:00;22.20;;;12.02;;
74347;SDS011;62778;50.406;10.008;2022-11-14T05:26:57;19.50;;;11.27;;
74347;SDS011;62778;50.406;10.008;2022-11-14T05:27:52;18.60;;;9.90;;
74347;SDS011;62778;50.406;10.008;2022-11-14T05:28:48;22.70;;;11.88;;
74347;SDS011;62778;50.406;10.008;2022-11-14T05:29:43;22.00;;;12.33;;
74347;SDS011;62778;50.406;10.008;2022-11-14T05:30:38;21.90;;;12.10;;
74347;SDS011;62778;50.406;10.008;2022-11-14T05:31:34;20.60;;;11.77;;
74347;SDS011;62778;50.406;10.008;2022-11-14T05:32:29;21.80;;;12.23;;
74347;SDS011;62778;50.406;10.008;2022-11-14T05:33:24;23.13;;;12.13;;